This is the latest recevied weather packets stored in our database for station/object KD7YDD. If no packets are shown the sender has not sent any weather packets the latest 10 day(s).
| Time | Temp. | Humidity | Pressure | Rain* | Wind** | Luminosity | Snow |
|---|---|---|---|---|---|---|---|
| 1778278278 | 25° C | 57% | 1016.5 hPa | 0 mm | - | 174 W/m² | - |
| 1778275897 | 23.89° C | 57% | 1017 hPa | 0 mm | - | 847 W/m² | - |
| 1778272877 | 23.33° C | 61% | 1017.6 hPa | 0 mm | - | 893 W/m² | - |
| 1778271677 | 23.89° C | 64% | 1017.7 hPa | 0 mm | - | 900 W/m² | - |
| 1778265697 | 17.78° C | 78% | 1018.8 hPa | 0 mm | - | 58 W/m² | - |
| 1778264477 | 16.67° C | 79% | 1019 hPa | 0 mm | - | 54 W/m² | - |
| 1778260881 | 13.33° C | 88% | 1019.4 hPa | 0 mm | - | 100 W/m² | - |
| 1778258517 | 12.22° C | 90% | 1019.4 hPa | 0 mm | - | 105 W/m² | - |
| 1778256677 | 11.11° C | 91% | 1019.3 hPa | 0 mm | - | 83 W/m² | - |
| 1778254277 | 11.11° C | 91% | 1019.3 hPa | 0 mm | - | 47 W/m² | - |
| 1778251277 | 10.56° C | 91% | 1019.1 hPa | 0 mm | - | 25 W/m² | - |
| 1778243476 | 10.56° C | 91% | 1018.5 hPa | 0 mm | - | 0 W/m² | - |
| 1778235076 | 10.56° C | 90% | 1018.6 hPa | 0 mm | - | 0 W/m² | - |
| 1778234476 | 10.56° C | 90% | 1018.6 hPa | 0 mm | - | 0 W/m² | - |
| 1778219497 | 11.11° C | 86% | 1018.4 hPa | 0 mm | - | 0 W/m² | - |
| 1778217076 | 11.67° C | 86% | 1018 hPa | 0 mm | - | 0 W/m² | - |
| 1778214676 | 12.22° C | 87% | 1018 hPa | 0 mm | - | 0 W/m² | - |
| 1778213476 | 12.22° C | 87% | 1017.6 hPa | 0 mm | - | 0 W/m² | - |
| 1778208680 | 15° C | 81% | 1017.2 hPa | 0 mm | - | 0 W/m² | - |
| 1778200876 | 18.89° C | 72% | 1017.2 hPa | 0 mm | - | 33 W/m² | - |
| 1778198475 | 19.44° C | 71% | 1017.3 hPa | 0 mm | - | 53 W/m² | - |
| 1778196700 | 19.44° C | 69% | 1017.5 hPa | 0 mm | - | 71 W/m² | - |
| 1778194300 | 19.44° C | 68% | 1017.8 hPa | 0 mm | - | 691 W/m² | - |
| 1778193677 | 20.56° C | 67% | 1017.7 hPa | 0 mm | - | 712 W/m² | - |
| 1778191277 | 20.56° C | 67% | 1018 hPa | 0 mm | - | 791 W/m² | - |
* Rain latest hour (hover to see other rain measurements)
** Current wind speed in m/s (hover to see current wind gust speed)